sensor_id;sensor_type;location;lat;lon;timestamp;pressure;altitude;pressure_sealevel;temperature;humidity
9538;BME280;4807;48.024;11.726;2022-11-27T00:02:27;96196.91;;;-0.92;88.78
9538;BME280;4807;48.024;11.726;2022-11-27T00:05:37;96199.53;;;-0.92;89.43
9538;BME280;4807;48.024;11.726;2022-11-27T00:08:46;96195.22;;;-0.93;89.63
9538;BME280;4807;48.024;11.726;2022-11-27T00:11:54;96187.72;;;-0.85;89.53
9538;BME280;4807;48.024;11.726;2022-11-27T00:15:03;96190.53;;;-0.88;89.50
9538;BME280;4807;48.024;11.726;2022-11-27T00:18:12;96187.53;;;-0.82;88.90
9538;BME280;4807;48.024;11.726;2022-11-27T00:21:24;96202.56;;;-0.98;89.30
9538;BME280;4807;48.024;11.726;2022-11-27T00:24:33;96195.44;;;-0.96;88.88
9538;BME280;4807;48.024;11.726;2022-11-27T00:27:41;96191.78;;;-0.94;89.31
9538;BME280;4807;48.024;11.726;2022-11-27T00:30:49;96208.63;;;-0.98;89.85
9538;BME280;4807;48.024;11.726;2022-11-27T00:34:02;96201.81;;;-1.00;88.78
9538;BME280;4807;48.024;11.726;2022-11-27T00:37:12;96195.41;;;-1.09;89.04
9538;BME280;4807;48.024;11.726;2022-11-27T00:40:20;96195.16;;;-1.19;89.67
9538;BME280;4807;48.024;11.726;2022-11-27T00:43:29;96197.09;;;-0.95;89.21
9538;BME280;4807;48.024;11.726;2022-11-27T00:46:42;96178.88;;;-1.09;89.97
9538;BME280;4807;48.024;11.726;2022-11-27T00:49:51;96173.66;;;-0.97;89.45
9538;BME280;4807;48.024;11.726;2022-11-27T00:53:00;96161.91;;;-0.90;89.34
9538;BME280;4807;48.024;11.726;2022-11-27T00:56:13;96156.34;;;-0.85;90.02
9538;BME280;4807;48.024;11.726;2022-11-27T00:59:22;96152.19;;;-0.75;89.67
9538;BME280;4807;48.024;11.726;2022-11-27T01:02:31;96147.75;;;-0.87;89.21
9538;BME280;4807;48.024;11.726;2022-11-27T01:05:39;96151.44;;;-0.90;89.83
9538;BME280;4807;48.024;11.726;2022-11-27T01:08:48;96149.22;;;-0.96;89.79
9538;BME280;4807;48.024;11.726;2022-11-27T01:11:57;96148.38;;;-0.96;89.42
9538;BME280;4807;48.024;11.726;2022-11-27T01:15:07;96141.34;;;-1.08;88.69
9538;BME280;4807;48.024;11.726;2022-11-27T01:18:15;96135.38;;;-1.10;89.49
9538;BME280;4807;48.024;11.726;2022-11-27T01:21:26;96133.19;;;-1.17;89.32
9538;BME280;4807;48.024;11.726;2022-11-27T01:24:36;96132.66;;;-1.22;88.53
9538;BME280;4807;48.024;11.726;2022-11-27T01:27:45;96132.84;;;-1.25;88.92
9538;BME280;4807;48.024;11.726;2022-11-27T01:30:53;96128.56;;;-1.26;88.98
9538;BME280;4807;48.024;11.726;2022-11-27T01:34:04;96120.56;;;-1.37;89.44
9538;BME280;4807;48.024;11.726;2022-11-27T01:37:13;96123.41;;;-1.40;89.11
9538;BME280;4807;48.024;11.726;2022-11-27T01:40:23;96126.75;;;-1.38;88.92
9538;BME280;4807;48.024;11.726;2022-11-27T01:43:38;96112.38;;;-1.45;89.05
9538;BME280;4807;48.024;11.726;2022-11-27T01:46:49;96117.28;;;-1.53;89.02
9538;BME280;4807;48.024;11.726;2022-11-27T01:50:12;96127.53;;;-1.50;88.86
9538;BME280;4807;48.024;11.726;2022-11-27T01:53:20;96124.38;;;-1.55;88.64
9538;BME280;4807;48.024;11.726;2022-11-27T01:56:30;96122.31;;;-1.50;88.52
9538;BME280;4807;48.024;11.726;2022-11-27T01:59:40;96128.38;;;-1.23;90.24
9538;BME280;4807;48.024;11.726;2022-11-27T02:02:48;96129.91;;;-1.20;89.21
9538;BME280;4807;48.024;11.726;2022-11-27T02:05:57;96128.22;;;-1.34;88.64
9538;BME280;4807;48.024;11.726;2022-11-27T02:09:06;96121.28;;;-1.47;87.80
9538;BME280;4807;48.024;11.726;2022-11-27T02:12:22;96117.69;;;-1.59;88.27
9538;BME280;4807;48.024;11.726;2022-11-27T02:15:42;96118.94;;;-1.52;87.96
9538;BME280;4807;48.024;11.726;2022-11-27T02:18:58;96111.72;;;-1.61;88.47
9538;BME280;4807;48.024;11.726;2022-11-27T02:22:25;96109.31;;;-1.64;88.40
9538;BME280;4807;48.024;11.726;2022-11-27T02:25:55;96110.34;;;-1.67;88.48
9538;BME280;4807;48.024;11.726;2022-11-27T02:29:10;96096.94;;;-1.75;88.67
9538;BME280;4807;48.024;11.726;2022-11-27T02:32:26;96093.78;;;-1.80;88.29
9538;BME280;4807;48.024;11.726;2022-11-27T02:35:45;96084.06;;;-1.78;89.02
9538;BME280;4807;48.024;11.726;2022-11-27T02:39:02;96080.09;;;-1.83;88.39
9538;BME280;4807;48.024;11.726;2022-11-27T02:42:17;96074.44;;;-1.90;89.56
9538;BME280;4807;48.024;11.726;2022-11-27T02:45:32;96073.50;;;-1.89;88.89
9538;BME280;4807;48.024;11.726;2022-11-27T02:48:46;96068.19;;;-1.87;88.56
9538;BME280;4807;48.024;11.726;2022-11-27T02:51:58;96058.47;;;-1.85;89.51
9538;BME280;4807;48.024;11.726;2022-11-27T02:55:14;96060.97;;;-1.84;89.23
9538;BME280;4807;48.024;11.726;2022-11-27T02:58:27;96052.72;;;-1.90;88.71
9538;BME280;4807;48.024;11.726;2022-11-27T03:01:43;96047.00;;;-1.83;88.89
9538;BME280;4807;48.024;11.726;2022-11-27T03:04:55;96043.00;;;-1.88;88.42
9538;BME280;4807;48.024;11.726;2022-11-27T03:08:07;96031.06;;;-1.93;88.82
9538;BME280;4807;48.024;11.726;2022-11-27T03:11:17;96030.03;;;-2.03;88.33
9538;BME280;4807;48.024;11.726;2022-11-27T03:14:26;96024.31;;;-2.09;87.93
9538;BME280;4807;48.024;11.726;2022-11-27T03:17:50;96028.72;;;-2.10;88.63
9538;BME280;4807;48.024;11.726;2022-11-27T03:21:08;96021.28;;;-2.16;89.11
9538;BME280;4807;48.024;11.726;2022-11-27T03:24:23;96017.91;;;-2.04;88.37
9538;BME280;4807;48.024;11.726;2022-11-27T03:27:38;96026.91;;;-1.95;88.69
9538;BME280;4807;48.024;11.726;2022-11-27T03:30:48;96023.13;;;-2.04;88.19
9538;BME280;4807;48.024;11.726;2022-11-27T03:33:58;96030.63;;;-1.99;88.92
9538;BME280;4807;48.024;11.726;2022-11-27T03:37:07;96023.72;;;-2.13;88.90
9538;BME280;4807;48.024;11.726;2022-11-27T03:40:17;96011.78;;;-2.17;89.38
9538;BME280;4807;48.024;11.726;2022-11-27T03:43:29;96012.34;;;-2.12;89.02
9538;BME280;4807;48.024;11.726;2022-11-27T03:46:55;96009.13;;;-2.03;88.31
9538;BME280;4807;48.024;11.726;2022-11-27T03:50:25;96012.28;;;-1.98;88.30
9538;BME280;4807;48.024;11.726;2022-11-27T03:53:47;95999.66;;;-1.91;88.49
9538;BME280;4807;48.024;11.726;2022-11-27T03:57:10;95998.09;;;-1.94;89.22
9538;BME280;4807;48.024;11.726;2022-11-27T04:00:22;95992.03;;;-1.94;89.32
9538;BME280;4807;48.024;11.726;2022-11-27T04:03:30;95995.47;;;-1.94;89.33
9538;BME280;4807;48.024;11.726;2022-11-27T04:06:40;95993.06;;;-1.97;88.72
9538;BME280;4807;48.024;11.726;2022-11-27T04:09:48;95996.53;;;-1.96;88.73
9538;BME280;4807;48.024;11.726;2022-11-27T04:12:57;95992.53;;;-2.02;88.68
9538;BME280;4807;48.024;11.726;2022-11-27T04:16:06;96004.25;;;-1.95;89.44
9538;BME280;4807;48.024;11.726;2022-11-27T04:19:15;96009.66;;;-1.98;88.68
9538;BME280;4807;48.024;11.726;2022-11-27T04:22:24;96006.41;;;-2.01;88.65
9538;BME280;4807;48.024;11.726;2022-11-27T04:25:33;96000.34;;;-2.02;88.35
9538;BME280;4807;48.024;11.726;2022-11-27T04:28:41;96001.78;;;-2.10;87.98
9538;BME280;4807;48.024;11.726;2022-11-27T04:31:49;96004.88;;;-2.18;89.19
9538;BME280;4807;48.024;11.726;2022-11-27T04:34:58;95999.38;;;-2.13;88.55
9538;BME280;4807;48.024;11.726;2022-11-27T04:38:07;96003.47;;;-2.09;88.14
9538;BME280;4807;48.024;11.726;2022-11-27T04:41:15;95992.09;;;-2.08;88.20
9538;BME280;4807;48.024;11.726;2022-11-27T04:44:24;95995.75;;;-2.11;88.47
9538;BME280;4807;48.024;11.726;2022-11-27T04:47:32;96007.84;;;-2.10;87.98
9538;BME280;4807;48.024;11.726;2022-11-27T04:50:40;95991.75;;;-2.16;88.49
9538;BME280;4807;48.024;11.726;2022-11-27T04:53:50;95987.09;;;-2.11;89.09
9538;BME280;4807;48.024;11.726;2022-11-27T04:56:59;95988.63;;;-2.09;88.71
9538;BME280;4807;48.024;11.726;2022-11-27T05:00:08;95995.75;;;-2.11;88.36
9538;BME280;4807;48.024;11.726;2022-11-27T05:03:17;95998.72;;;-2.17;87.94
9538;BME280;4807;48.024;11.726;2022-11-27T05:06:25;96001.56;;;-2.20;88.35
9538;BME280;4807;48.024;11.726;2022-11-27T05:09:35;95997.75;;;-2.28;88.13
9538;BME280;4807;48.024;11.726;2022-11-27T05:12:43;95996.47;;;-2.36;88.32
9538;BME280;4807;48.024;11.726;2022-11-27T05:15:52;95991.84;;;-2.45;87.53
9538;BME280;4807;48.024;11.726;2022-11-27T05:19:00;95990.25;;;-2.47;88.10
9538;BME280;4807;48.024;11.726;2022-11-27T05:22:09;95992.31;;;-2.52;88.50
9538;BME280;4807;48.024;11.726;2022-11-27T05:25:19;95986.63;;;-2.45;88.74
9538;BME280;4807;48.024;11.726;2022-11-27T05:28:27;95981.41;;;-2.45;89.43
9538;BME280;4807;48.024;11.726;2022-11-27T05:34:55;95985.00;;;-2.33;88.51
9538;BME280;4807;48.024;11.726;2022-11-27T05:38:03;95982.19;;;-2.30;89.03
9538;BME280;4807;48.024;11.726;2022-11-27T05:41:12;95992.41;;;-2.13;87.81
9538;BME280;4807;48.024;11.726;2022-11-27T05:44:21;95984.41;;;-2.24;88.95
9538;BME280;4807;48.024;11.726;2022-11-27T05:47:29;95993.97;;;-2.37;88.39
9538;BME280;4807;48.024;11.726;2022-11-27T05:50:38;95989.50;;;-2.49;88.91
9538;BME280;4807;48.024;11.726;2022-11-27T05:53:47;95980.69;;;-2.20;88.91
9538;BME280;4807;48.024;11.726;2022-11-27T05:56:56;95968.31;;;-2.31;88.06
9538;BME280;4807;48.024;11.726;2022-11-27T06:00:07;95966.38;;;-2.41;88.57
9538;BME280;4807;48.024;11.726;2022-11-27T06:03:15;95959.13;;;-2.36;87.90
9538;BME280;4807;48.024;11.726;2022-11-27T06:06:24;95956.53;;;-2.50;88.42
9538;BME280;4807;48.024;11.726;2022-11-27T06:09:32;95965.50;;;-2.54;88.16
9538;BME280;4807;48.024;11.726;2022-11-27T06:12:42;95961.03;;;-2.52;88.06
9538;BME280;4807;48.024;11.726;2022-11-27T06:15:50;95957.84;;;-2.57;88.75
9538;BME280;4807;48.024;11.726;2022-11-27T06:18:58;95961.13;;;-2.54;88.80
9538;BME280;4807;48.024;11.726;2022-11-27T06:22:06;95959.25;;;-2.52;88.60
9538;BME280;4807;48.024;11.726;2022-11-27T06:25:15;95961.97;;;-2.53;88.54
9538;BME280;4807;48.024;11.726;2022-11-27T06:28:25;95968.72;;;-2.51;87.88
9538;BME280;4807;48.024;11.726;2022-11-27T06:31:34;95965.94;;;-2.48;88.39
9538;BME280;4807;48.024;11.726;2022-11-27T06:34:42;95970.13;;;-2.45;88.80
9538;BME280;4807;48.024;11.726;2022-11-27T06:37:51;95966.25;;;-2.52;88.34
9538;BME280;4807;48.024;11.726;2022-11-27T06:41:04;95962.16;;;-2.56;87.73
9538;BME280;4807;48.024;11.726;2022-11-27T06:44:13;95956.66;;;-2.52;88.33
9538;BME280;4807;48.024;11.726;2022-11-27T06:47:22;95966.59;;;-2.44;88.45
9538;BME280;4807;48.024;11.726;2022-11-27T06:50:31;95961.25;;;-2.43;88.60
9538;BME280;4807;48.024;11.726;2022-11-27T06:53:41;95966.94;;;-2.36;88.47
9538;BME280;4807;48.024;11.726;2022-11-27T06:56:49;95968.50;;;-2.34;88.84
9538;BME280;4807;48.024;11.726;2022-11-27T07:00:00;95964.19;;;-2.20;87.51
9538;BME280;4807;48.024;11.726;2022-11-27T07:03:08;95965.41;;;-2.26;88.47
9538;BME280;4807;48.024;11.726;2022-11-27T07:06:19;95961.28;;;-2.16;88.66
9538;BME280;4807;48.024;11.726;2022-11-27T07:09:28;95960.34;;;-2.15;89.07
9538;BME280;4807;48.024;11.726;2022-11-27T07:12:36;95963.47;;;-2.10;88.08
9538;BME280;4807;48.024;11.726;2022-11-27T07:15:46;95963.63;;;-1.99;88.72
9538;BME280;4807;48.024;11.726;2022-11-27T07:18:58;95953.22;;;-1.86;88.68
9538;BME280;4807;48.024;11.726;2022-11-27T07:22:07;95955.44;;;-1.80;89.29
9538;BME280;4807;48.024;11.726;2022-11-27T07:25:16;95953.72;;;-1.54;88.17
9538;BME280;4807;48.024;11.726;2022-11-27T07:28:24;95953.59;;;-1.40;87.66
9538;BME280;4807;48.024;11.726;2022-11-27T07:31:34;95948.06;;;-1.48;88.40
9538;BME280;4807;48.024;11.726;2022-11-27T07:34:42;95947.84;;;-1.20;90.86
9538;BME280;4807;48.024;11.726;2022-11-27T07:37:50;95947.22;;;-0.98;90.16
9538;BME280;4807;48.024;11.726;2022-11-27T07:40:59;95944.22;;;-0.68;90.50
9538;BME280;4807;48.024;11.726;2022-11-27T07:44:08;95940.03;;;-0.58;90.20
9538;BME280;4807;48.024;11.726;2022-11-27T07:47:18;95940.31;;;-0.50;88.11
9538;BME280;4807;48.024;11.726;2022-11-27T07:50:26;95934.41;;;-0.41;88.85
9538;BME280;4807;48.024;11.726;2022-11-27T07:53:35;95935.75;;;-0.35;89.06
9538;BME280;4807;48.024;11.726;2022-11-27T07:56:44;95933.72;;;-0.31;87.46
9538;BME280;4807;48.024;11.726;2022-11-27T07:59:52;95934.25;;;-0.26;86.63
9538;BME280;4807;48.024;11.726;2022-11-27T08:03:02;95927.34;;;-0.27;86.99
9538;BME280;4807;48.024;11.726;2022-11-27T08:06:17;95930.44;;;-0.22;86.80
9538;BME280;4807;48.024;11.726;2022-11-27T08:09:28;95933.34;;;-0.14;87.44
9538;BME280;4807;48.024;11.726;2022-11-27T08:12:36;95922.00;;;-0.02;86.81
9538;BME280;4807;48.024;11.726;2022-11-27T08:15:46;95929.28;;;0.06;87.12
9538;BME280;4807;48.024;11.726;2022-11-27T08:18:57;95926.38;;;0.21;86.25
9538;BME280;4807;48.024;11.726;2022-11-27T08:22:10;95915.78;;;0.23;86.68
9538;BME280;4807;48.024;11.726;2022-11-27T08:25:19;95909.03;;;0.31;87.92
9538;BME280;4807;48.024;11.726;2022-11-27T08:28:27;95911.22;;;0.49;87.50
9538;BME280;4807;48.024;11.726;2022-11-27T08:31:35;95909.19;;;0.63;86.69
9538;BME280;4807;48.024;11.726;2022-11-27T08:34:45;95905.50;;;0.77;86.50
9538;BME280;4807;48.024;11.726;2022-11-27T08:37:53;95907.44;;;0.86;85.59
9538;BME280;4807;48.024;11.726;2022-11-27T08:41:04;95904.00;;;0.97;85.58
9538;BME280;4807;48.024;11.726;2022-11-27T08:44:12;95905.50;;;0.99;85.90
9538;BME280;4807;48.024;11.726;2022-11-27T08:47:21;95899.81;;;1.05;84.01
9538;BME280;4807;48.024;11.726;2022-11-27T08:50:31;95896.44;;;1.14;84.29
9538;BME280;4807;48.024;11.726;2022-11-27T08:53:40;95886.69;;;1.17;84.01
9538;BME280;4807;48.024;11.726;2022-11-27T08:56:51;95894.19;;;1.21;84.02
9538;BME280;4807;48.024;11.726;2022-11-27T08:59:59;95885.34;;;1.22;85.15
9538;BME280;4807;48.024;11.726;2022-11-27T09:03:10;95882.22;;;1.39;84.40
9538;BME280;4807;48.024;11.726;2022-11-27T09:06:23;95890.91;;;1.51;83.61
9538;BME280;4807;48.024;11.726;2022-11-27T09:09:35;95893.31;;;1.54;83.66
9538;BME280;4807;48.024;11.726;2022-11-27T09:12:44;95884.31;;;1.68;82.79
9538;BME280;4807;48.024;11.726;2022-11-27T09:15:52;95889.69;;;1.66;82.04
9538;BME280;4807;48.024;11.726;2022-11-27T09:19:01;95890.63;;;1.65;82.38
9538;BME280;4807;48.024;11.726;2022-11-27T09:22:11;95880.13;;;1.65;82.35
9538;BME280;4807;48.024;11.726;2022-11-27T09:25:19;95883.47;;;1.67;83.27
9538;BME280;4807;48.024;11.726;2022-11-27T09:28:28;95885.03;;;1.70;83.28
9538;BME280;4807;48.024;11.726;2022-11-27T09:31:37;95881.78;;;1.77;82.35
9538;BME280;4807;48.024;11.726;2022-11-27T09:34:46;95887.38;;;1.84;83.65
9538;BME280;4807;48.024;11.726;2022-11-27T09:37:56;95882.88;;;1.96;82.23
9538;BME280;4807;48.024;11.726;2022-11-27T09:41:33;95878.88;;;1.91;83.75
9538;BME280;4807;48.024;11.726;2022-11-27T09:44:49;95874.66;;;2.00;84.31
9538;BME280;4807;48.024;11.726;2022-11-27T09:48:07;95869.81;;;2.16;81.91
9538;BME280;4807;48.024;11.726;2022-11-27T09:51:27;95867.94;;;2.28;80.74
9538;BME280;4807;48.024;11.726;2022-11-27T09:54:52;95856.94;;;2.34;81.92
9538;BME280;4807;48.024;11.726;2022-11-27T09:58:06;95844.66;;;2.44;80.81
9538;BME280;4807;48.024;11.726;2022-11-27T10:01:25;95835.31;;;2.51;81.40
9538;BME280;4807;48.024;11.726;2022-11-27T10:04:44;95842.69;;;2.57;80.60
9538;BME280;4807;48.024;11.726;2022-11-27T10:08:32;95827.63;;;2.59;82.80
9538;BME280;4807;48.024;11.726;2022-11-27T10:11:54;95822.00;;;2.74;82.34
9538;BME280;4807;48.024;11.726;2022-11-27T10:15:15;95814.16;;;2.93;79.71
9538;BME280;4807;48.024;11.726;2022-11-27T10:18:38;95820.81;;;2.87;80.95
9538;BME280;4807;48.024;11.726;2022-11-27T10:21:54;95803.13;;;2.99;80.01
9538;BME280;4807;48.024;11.726;2022-11-27T10:25:15;95796.06;;;2.99;81.40
9538;BME280;4807;48.024;11.726;2022-11-27T10:28:37;95790.97;;;3.08;81.07
9538;BME280;4807;48.024;11.726;2022-11-27T10:31:50;95776.03;;;3.18;80.14
9538;BME280;4807;48.024;11.726;2022-11-27T10:35:03;95774.38;;;3.26;80.17
9538;BME280;4807;48.024;11.726;2022-11-27T10:38:20;95770.22;;;3.33;80.20
9538;BME280;4807;48.024;11.726;2022-11-27T10:41:38;95773.84;;;3.42;79.71
9538;BME280;4807;48.024;11.726;2022-11-27T10:45:02;95773.16;;;3.50;79.41
9538;BME280;4807;48.024;11.726;2022-11-27T10:48:12;95774.16;;;3.49;77.81
9538;BME280;4807;48.024;11.726;2022-11-27T10:51:29;95761.66;;;3.51;78.67
9538;BME280;4807;48.024;11.726;2022-11-27T10:54:38;95761.78;;;3.59;78.31
9538;BME280;4807;48.024;11.726;2022-11-27T10:58:02;95748.38;;;3.62;78.83
9538;BME280;4807;48.024;11.726;2022-11-27T11:01:17;95745.31;;;3.76;78.10
9538;BME280;4807;48.024;11.726;2022-11-27T11:04:28;95745.16;;;3.87;77.47
9538;BME280;4807;48.024;11.726;2022-11-27T11:07:59;95746.13;;;3.96;77.60
9538;BME280;4807;48.024;11.726;2022-11-27T11:11:09;95743.19;;;3.99;78.34
9538;BME280;4807;48.024;11.726;2022-11-27T11:14:20;95744.44;;;4.04;78.27
9538;BME280;4807;48.024;11.726;2022-11-27T11:17:32;95755.50;;;4.17;75.85
9538;BME280;4807;48.024;11.726;2022-11-27T11:20:46;95748.00;;;4.22;75.87
9538;BME280;4807;48.024;11.726;2022-11-27T11:23:59;95750.81;;;4.11;74.55
9538;BME280;4807;48.024;11.726;2022-11-27T11:27:15;95749.00;;;4.12;76.67
9538;BME280;4807;48.024;11.726;2022-11-27T11:30:28;95740.97;;;4.13;76.87
9538;BME280;4807;48.024;11.726;2022-11-27T11:33:48;95743.44;;;4.15;76.14
9538;BME280;4807;48.024;11.726;2022-11-27T11:37:00;95731.31;;;4.32;73.70
9538;BME280;4807;48.024;11.726;2022-11-27T11:40:24;95733.28;;;4.30;74.69
9538;BME280;4807;48.024;11.726;2022-11-27T11:43:36;95732.28;;;4.31;73.51
9538;BME280;4807;48.024;11.726;2022-11-27T11:46:51;95725.38;;;4.30;71.37
9538;BME280;4807;48.024;11.726;2022-11-27T11:50:02;95725.53;;;4.28;72.40
9538;BME280;4807;48.024;11.726;2022-11-27T11:53:23;95724.97;;;4.25;73.55
9538;BME280;4807;48.024;11.726;2022-11-27T11:56:43;95723.13;;;4.35;72.17
9538;BME280;4807;48.024;11.726;2022-11-27T12:00:04;95723.25;;;4.43;72.92
9538;BME280;4807;48.024;11.726;2022-11-27T12:03:36;95732.50;;;4.47;73.08
9538;BME280;4807;48.024;11.726;2022-11-27T12:06:59;95725.72;;;4.54;73.83
9538;BME280;4807;48.024;11.726;2022-11-27T12:10:21;95732.59;;;4.65;73.97
9538;BME280;4807;48.024;11.726;2022-11-27T12:13:51;95725.63;;;4.73;73.97
9538;BME280;4807;48.024;11.726;2022-11-27T12:17:22;95720.59;;;5.25;73.28
9538;BME280;4807;48.024;11.726;2022-11-27T12:20:53;95713.13;;;6.69;68.53
9538;BME280;4807;48.024;11.726;2022-11-27T12:24:28;95699.97;;;7.51;62.59
9538;BME280;4807;48.024;11.726;2022-11-27T12:27:50;95691.53;;;7.72;61.38
9538;BME280;4807;48.024;11.726;2022-11-27T12:31:14;95685.38;;;8.04;61.53
9538;BME280;4807;48.024;11.726;2022-11-27T12:34:42;95684.25;;;6.92;64.04
9538;BME280;4807;48.024;11.726;2022-11-27T12:38:19;95688.75;;;6.23;66.13
9538;BME280;4807;48.024;11.726;2022-11-27T12:41:58;95693.88;;;5.81;68.42
9538;BME280;4807;48.024;11.726;2022-11-27T12:45:19;95682.63;;;5.44;68.79
9538;BME280;4807;48.024;11.726;2022-11-27T12:48:35;95677.44;;;5.16;69.27
9538;BME280;4807;48.024;11.726;2022-11-27T12:51:50;95669.72;;;5.05;69.90
9538;BME280;4807;48.024;11.726;2022-11-27T12:55:05;95668.00;;;4.96;69.41
9538;BME280;4807;48.024;11.726;2022-11-27T12:58:27;95652.81;;;4.80;70.40
9538;BME280;4807;48.024;11.726;2022-11-27T13:01:43;95656.44;;;4.79;69.82
9538;BME280;4807;48.024;11.726;2022-11-27T13:04:59;95664.59;;;4.86;69.84
9538;BME280;4807;48.024;11.726;2022-11-27T13:08:17;95650.25;;;4.88;69.82
9538;BME280;4807;48.024;11.726;2022-11-27T13:11:32;95651.41;;;4.86;70.03
9538;BME280;4807;48.024;11.726;2022-11-27T13:14:57;95648.78;;;4.86;69.94
9538;BME280;4807;48.024;11.726;2022-11-27T13:18:19;95630.81;;;4.89;68.82
9538;BME280;4807;48.024;11.726;2022-11-27T13:21:33;95630.47;;;5.02;69.92
9538;BME280;4807;48.024;11.726;2022-11-27T13:24:44;95630.69;;;5.09;69.94
9538;BME280;4807;48.024;11.726;2022-11-27T13:27:55;95632.50;;;5.08;71.06
9538;BME280;4807;48.024;11.726;2022-11-27T13:31:17;95622.97;;;4.97;71.33
9538;BME280;4807;48.024;11.726;2022-11-27T13:34:40;95620.31;;;4.80;71.83
9538;BME280;4807;48.024;11.726;2022-11-27T13:37:59;95627.63;;;4.68;71.17
9538;BME280;4807;48.024;11.726;2022-11-27T13:41:21;95626.16;;;4.56;71.49
9538;BME280;4807;48.024;11.726;2022-11-27T13:44:34;95618.19;;;4.38;71.89
9538;BME280;4807;48.024;11.726;2022-11-27T13:47:47;95619.72;;;4.41;72.27
9538;BME280;4807;48.024;11.726;2022-11-27T13:50:58;95615.75;;;4.37;72.39
9538;BME280;4807;48.024;11.726;2022-11-27T13:54:11;95613.75;;;4.39;72.87
9538;BME280;4807;48.024;11.726;2022-11-27T13:57:21;95605.19;;;4.37;73.25
9538;BME280;4807;48.024;11.726;2022-11-27T14:00:35;95605.44;;;4.43;73.13
9538;BME280;4807;48.024;11.726;2022-11-27T14:03:46;95593.69;;;4.38;72.95
9538;BME280;4807;48.024;11.726;2022-11-27T14:07:00;95589.28;;;4.29;73.48
9538;BME280;4807;48.024;11.726;2022-11-27T14:10:16;95597.19;;;4.29;74.89
9538;BME280;4807;48.024;11.726;2022-11-27T14:13:36;95592.38;;;4.14;75.44
9538;BME280;4807;48.024;11.726;2022-11-27T14:16:57;95596.56;;;4.07;75.60
9538;BME280;4807;48.024;11.726;2022-11-27T14:20:26;95603.13;;;4.03;75.64
9538;BME280;4807;48.024;11.726;2022-11-27T14:23:50;95604.97;;;3.93;76.18
9538;BME280;4807;48.024;11.726;2022-11-27T14:26:58;95607.22;;;3.88;76.58
9538;BME280;4807;48.024;11.726;2022-11-27T14:30:29;95591.31;;;3.70;76.78
9538;BME280;4807;48.024;11.726;2022-11-27T14:33:43;95599.97;;;3.43;77.38
9538;BME280;4807;48.024;11.726;2022-11-27T14:37:23;95593.91;;;3.14;78.63
9538;BME280;4807;48.024;11.726;2022-11-27T14:40:31;95597.66;;;3.02;79.07
9538;BME280;4807;48.024;11.726;2022-11-27T14:43:40;95587.41;;;2.89;79.26
9538;BME280;4807;48.024;11.726;2022-11-27T14:46:48;95584.09;;;2.58;79.84
9538;BME280;4807;48.024;11.726;2022-11-27T14:49:59;95588.09;;;2.43;80.11
9538;BME280;4807;48.024;11.726;2022-11-27T14:53:11;95583.31;;;2.27;80.52
9538;BME280;4807;48.024;11.726;2022-11-27T14:56:20;95591.72;;;2.12;81.25
9538;BME280;4807;48.024;11.726;2022-11-27T14:59:29;95585.66;;;2.21;81.38
9538;BME280;4807;48.024;11.726;2022-11-27T15:02:38;95582.03;;;2.12;81.74
9538;BME280;4807;48.024;11.726;2022-11-27T15:05:54;95580.69;;;2.18;81.61
9538;BME280;4807;48.024;11.726;2022-11-27T15:09:16;95577.91;;;2.10;81.39
9538;BME280;4807;48.024;11.726;2022-11-27T15:12:46;95578.75;;;2.10;82.29
9538;BME280;4807;48.024;11.726;2022-11-27T15:16:01;95577.88;;;2.00;82.05
9538;BME280;4807;48.024;11.726;2022-11-27T15:19:16;95576.06;;;2.01;82.27
9538;BME280;4807;48.024;11.726;2022-11-27T15:22:26;95570.66;;;1.92;82.70
9538;BME280;4807;48.024;11.726;2022-11-27T15:25:39;95574.00;;;1.95;82.41
9538;BME280;4807;48.024;11.726;2022-11-27T15:28:51;95557.91;;;1.88;82.15
9538;BME280;4807;48.024;11.726;2022-11-27T15:32:02;95565.38;;;1.83;82.97
9538;BME280;4807;48.024;11.726;2022-11-27T15:35:14;95565.28;;;1.64;83.20
9538;BME280;4807;48.024;11.726;2022-11-27T15:38:22;95555.22;;;1.69;83.01
9538;BME280;4807;48.024;11.726;2022-11-27T15:41:32;95555.47;;;1.66;83.38
9538;BME280;4807;48.024;11.726;2022-11-27T15:44:49;95552.03;;;1.65;83.22
9538;BME280;4807;48.024;11.726;2022-11-27T15:48:01;95545.66;;;1.58;82.85
9538;BME280;4807;48.024;11.726;2022-11-27T15:51:09;95536.22;;;1.56;83.45
9538;BME280;4807;48.024;11.726;2022-11-27T15:54:18;95530.97;;;1.46;82.95
9538;BME280;4807;48.024;11.726;2022-11-27T15:57:28;95527.53;;;1.55;83.98
9538;BME280;4807;48.024;11.726;2022-11-27T16:00:36;95524.22;;;1.53;83.38
9538;BME280;4807;48.024;11.726;2022-11-27T16:03:45;95513.97;;;1.50;83.61
9538;BME280;4807;48.024;11.726;2022-11-27T16:06:54;95525.72;;;1.46;83.01
9538;BME280;4807;48.024;11.726;2022-11-27T16:10:04;95531.47;;;1.40;83.21
9538;BME280;4807;48.024;11.726;2022-11-27T16:13:15;95524.25;;;1.32;83.43
9538;BME280;4807;48.024;11.726;2022-11-27T16:16:25;95522.03;;;1.28;83.53
9538;BME280;4807;48.024;11.726;2022-11-27T16:19:35;95520.63;;;1.24;83.92
9538;BME280;4807;48.024;11.726;2022-11-27T16:22:43;95512.09;;;1.31;84.07
9538;BME280;4807;48.024;11.726;2022-11-27T16:25:55;95505.75;;;1.34;84.04
9538;BME280;4807;48.024;11.726;2022-11-27T16:29:07;95502.44;;;1.32;84.27
9538;BME280;4807;48.024;11.726;2022-11-27T16:32:16;95495.44;;;1.42;84.53
9538;BME280;4807;48.024;11.726;2022-11-27T16:35:24;95493.41;;;1.45;83.77
9538;BME280;4807;48.024;11.726;2022-11-27T16:38:34;95491.06;;;1.52;83.86
9538;BME280;4807;48.024;11.726;2022-11-27T16:41:44;95481.41;;;1.52;83.09
9538;BME280;4807;48.024;11.726;2022-11-27T16:44:55;95481.78;;;1.48;83.43
9538;BME280;4807;48.024;11.726;2022-11-27T16:48:04;95469.63;;;1.47;84.00
9538;BME280;4807;48.024;11.726;2022-11-27T16:51:16;95462.16;;;1.42;84.09
9538;BME280;4807;48.024;11.726;2022-11-27T16:54:26;95450.31;;;1.48;84.02
9538;BME280;4807;48.024;11.726;2022-11-27T16:57:35;95448.38;;;1.50;84.00
9538;BME280;4807;48.024;11.726;2022-11-27T17:00:45;95447.16;;;1.54;83.27
9538;BME280;4807;48.024;11.726;2022-11-27T17:03:53;95447.00;;;1.46;83.45
9538;BME280;4807;48.024;11.726;2022-11-27T17:07:02;95439.81;;;1.48;83.73
9538;BME280;4807;48.024;11.726;2022-11-27T17:10:11;95431.06;;;1.28;83.96
9538;BME280;4807;48.024;11.726;2022-11-27T17:13:20;95431.31;;;1.25;83.77
9538;BME280;4807;48.024;11.726;2022-11-27T17:16:33;95417.66;;;1.22;84.38
9538;BME280;4807;48.024;11.726;2022-11-27T17:19:42;95414.03;;;1.23;84.51
9538;BME280;4807;48.024;11.726;2022-11-27T17:22:51;95407.84;;;1.24;84.73
9538;BME280;4807;48.024;11.726;2022-11-27T17:26:06;95408.28;;;1.29;84.40
9538;BME280;4807;48.024;11.726;2022-11-27T17:29:17;95403.69;;;1.21;84.31